sensor_id;sensor_type;location;lat;lon;timestamp;pressure;altitude;pressure_sealevel;temperature;humidity
40908;BME280;51055;59.436;24.778;2023-04-12T15:57:01;101332.84;;;13.28;59.84
40908;BME280;51055;59.436;24.778;2023-04-12T15:59:37;101328.38;;;13.28;58.78
40908;BME280;51055;59.436;24.778;2023-04-12T16:02:07;101337.19;;;13.29;58.02
40908;BME280;51055;59.436;24.778;2023-04-12T16:04:36;101336.94;;;13.32;57.85
40908;BME280;51055;59.436;24.778;2023-04-12T16:07:04;101336.72;;;13.35;57.12
40908;BME280;51055;59.436;24.778;2023-04-12T16:09:32;101334.63;;;13.38;57.02
40908;BME280;51055;59.436;24.778;2023-04-12T16:12:01;101335.88;;;13.34;57.07
40908;BME280;51055;59.436;24.778;2023-04-12T16:14:29;101335.72;;;13.36;57.39
40908;BME280;51055;59.436;24.778;2023-04-12T16:16:57;101335.28;;;13.31;57.46
40908;BME280;51055;59.436;24.778;2023-04-12T16:19:25;101332.38;;;13.23;58.17
40908;BME280;51055;59.436;24.778;2023-04-12T16:21:53;101344.00;;;13.22;57.97
40908;BME280;51055;59.436;24.778;2023-04-12T16:24:21;101350.91;;;13.13;58.28
40908;BME280;51055;59.436;24.778;2023-04-12T16:26:48;101345.97;;;13.09;59.15
40908;BME280;51055;59.436;24.778;2023-04-12T16:29:16;101335.38;;;13.07;59.38
40908;BME280;51055;59.436;24.778;2023-04-12T16:31:44;101347.13;;;12.93;60.04
40908;BME280;51055;59.436;24.778;2023-04-12T16:34:12;101350.03;;;12.90;60.50
40908;BME280;51055;59.436;24.778;2023-04-12T16:36:42;101351.84;;;12.90;60.52
40908;BME280;51055;59.436;24.778;2023-04-12T16:39:11;101351.00;;;12.89;60.66
40908;BME280;51055;59.436;24.778;2023-04-12T16:41:39;101349.19;;;12.90;60.66
40908;BME280;51055;59.436;24.778;2023-04-12T16:44:07;101346.78;;;12.76;60.64
40908;BME280;51055;59.436;24.778;2023-04-12T16:46:35;101345.81;;;12.77;60.75
40908;BME280;51055;59.436;24.778;2023-04-12T16:49:02;101345.69;;;12.78;60.54
40908;BME280;51055;59.436;24.778;2023-04-12T16:51:30;101356.94;;;12.71;60.83
40908;BME280;51055;59.436;24.778;2023-04-12T16:54:06;101349.06;;;12.58;60.15
40908;BME280;51055;59.436;24.778;2023-04-12T16:56:34;101348.44;;;12.54;60.39
40908;BME280;51055;59.436;24.778;2023-04-12T16:59:02;101348.31;;;12.45;60.12
40908;BME280;51055;59.436;24.778;2023-04-12T17:01:31;101345.19;;;12.40;60.52
40908;BME280;51055;59.436;24.778;2023-04-12T17:03:59;101335.72;;;12.36;60.52
40908;BME280;51055;59.436;24.778;2023-04-12T17:06:27;101347.81;;;12.29;60.22
40908;BME280;51055;59.436;24.778;2023-04-12T17:08:56;101355.50;;;12.10;60.93
40908;BME280;51055;59.436;24.778;2023-04-12T17:11:24;101344.47;;;12.03;61.53
40908;BME280;51055;59.436;24.778;2023-04-12T17:13:53;101341.03;;;11.90;62.08
40908;BME280;51055;59.436;24.778;2023-04-12T17:16:21;101345.44;;;11.78;62.72
40908;BME280;51055;59.436;24.778;2023-04-12T17:18:49;101348.09;;;11.78;63.02
40908;BME280;51055;59.436;24.778;2023-04-12T17:21:17;101351.41;;;11.69;63.44
40908;BME280;51055;59.436;24.778;2023-04-12T17:23:49;101346.72;;;11.49;63.84
40908;BME280;51055;59.436;24.778;2023-04-12T17:26:18;101362.44;;;11.28;64.42
40908;BME280;51055;59.436;24.778;2023-04-12T17:28:51;101353.66;;;11.15;65.22
40908;BME280;51055;59.436;24.778;2023-04-12T17:31:19;101358.66;;;11.07;65.91
40908;BME280;51055;59.436;24.778;2023-04-12T17:33:49;101349.31;;;11.02;65.98
40908;BME280;51055;59.436;24.778;2023-04-12T17:36:17;101353.88;;;10.99;66.17
40908;BME280;51055;59.436;24.778;2023-04-12T17:38:45;101357.72;;;10.95;66.93
40908;BME280;51055;59.436;24.778;2023-04-12T17:41:13;101354.66;;;10.89;66.96
40908;BME280;51055;59.436;24.778;2023-04-12T17:43:44;101359.31;;;10.98;66.80
40908;BME280;51055;59.436;24.778;2023-04-12T17:46:13;101364.50;;;10.99;67.00
40908;BME280;51055;59.436;24.778;2023-04-12T17:48:41;101359.84;;;10.90;67.29
40908;BME280;51055;59.436;24.778;2023-04-12T17:51:09;101357.53;;;10.86;67.53
40908;BME280;51055;59.436;24.778;2023-04-12T17:53:38;101353.69;;;10.90;67.45
40908;BME280;51055;59.436;24.778;2023-04-12T17:56:06;101366.94;;;10.90;67.45
40908;BME280;51055;59.436;24.778;2023-04-12T17:58:34;101366.84;;;10.91;67.28
40908;BME280;51055;59.436;24.778;2023-04-12T18:01:03;101362.91;;;10.97;67.22
40908;BME280;51055;59.436;24.778;2023-04-12T18:03:31;101359.81;;;11.03;67.37
40908;BME280;51055;59.436;24.778;2023-04-12T18:05:59;101370.97;;;11.08;66.51
40908;BME280;51055;59.436;24.778;2023-04-12T18:08:27;101376.38;;;11.07;67.43
40908;BME280;51055;59.436;24.778;2023-04-12T18:10:55;101373.72;;;11.07;66.75
40908;BME280;51055;59.436;24.778;2023-04-12T18:13:23;101374.25;;;11.12;66.95
40908;BME280;51055;59.436;24.778;2023-04-12T18:15:51;101376.91;;;11.12;67.14
40908;BME280;51055;59.436;24.778;2023-04-12T18:18:18;101376.56;;;11.16;66.59
40908;BME280;51055;59.436;24.778;2023-04-12T18:20:47;101378.41;;;11.16;67.01
40908;BME280;51055;59.436;24.778;2023-04-12T18:23:14;101379.34;;;11.15;66.84
40908;BME280;51055;59.436;24.778;2023-04-12T18:25:42;101385.28;;;11.18;67.11
40908;BME280;51055;59.436;24.778;2023-04-12T18:28:10;101377.88;;;11.11;67.18
40908;BME280;51055;59.436;24.778;2023-04-12T18:30:38;101381.16;;;11.14;67.08
40908;BME280;51055;59.436;24.778;2023-04-12T18:33:06;101384.66;;;11.15;65.90
40908;BME280;51055;59.436;24.778;2023-04-12T18:35:37;101383.50;;;11.19;66.79
40908;BME280;51055;59.436;24.778;2023-04-12T18:38:06;101384.25;;;11.08;66.71
40908;BME280;51055;59.436;24.778;2023-04-12T18:40:37;101384.34;;;11.07;67.11
40908;BME280;51055;59.436;24.778;2023-04-12T18:43:05;101378.94;;;11.08;66.90
40908;BME280;51055;59.436;24.778;2023-04-12T18:45:39;101381.81;;;11.05;66.53
40908;BME280;51055;59.436;24.778;2023-04-12T18:48:07;101385.41;;;11.04;66.76
40908;BME280;51055;59.436;24.778;2023-04-12T18:50:36;101387.88;;;10.94;66.68
40908;BME280;51055;59.436;24.778;2023-04-12T18:53:06;101380.97;;;10.92;66.75
40908;BME280;51055;59.436;24.778;2023-04-12T18:55:34;101386.28;;;10.92;67.04
40908;BME280;51055;59.436;24.778;2023-04-12T18:58:03;101386.59;;;10.87;66.68
40908;BME280;51055;59.436;24.778;2023-04-12T19:00:31;101383.84;;;10.89;66.70
40908;BME280;51055;59.436;24.778;2023-04-12T19:02:59;101391.91;;;10.87;66.28
40908;BME280;51055;59.436;24.778;2023-04-12T19:05:28;101381.53;;;10.72;67.07
40908;BME280;51055;59.436;24.778;2023-04-12T19:07:57;101389.34;;;10.73;66.96
40908;BME280;51055;59.436;24.778;2023-04-12T19:10:26;101382.88;;;10.77;66.17
40908;BME280;51055;59.436;24.778;2023-04-12T19:12:57;101389.16;;;10.76;66.55
40908;BME280;51055;59.436;24.778;2023-04-12T19:15:26;101388.63;;;10.71;66.07
40908;BME280;51055;59.436;24.778;2023-04-12T19:17:54;101384.47;;;10.80;66.28
40908;BME280;51055;59.436;24.778;2023-04-12T19:20:23;101381.31;;;10.75;65.43
40908;BME280;51055;59.436;24.778;2023-04-12T19:22:51;101394.06;;;10.70;65.43
40908;BME280;51055;59.436;24.778;2023-04-12T19:25:20;101384.59;;;10.66;65.53
40908;BME280;51055;59.436;24.778;2023-04-12T19:27:48;101395.09;;;10.67;65.41
40908;BME280;51055;59.436;24.778;2023-04-12T19:30:16;101394.34;;;10.65;65.35
40908;BME280;51055;59.436;24.778;2023-04-12T19:32:44;101396.28;;;10.63;65.66
40908;BME280;51055;59.436;24.778;2023-04-12T19:35:12;101387.78;;;10.58;65.46
40908;BME280;51055;59.436;24.778;2023-04-12T19:37:41;101394.34;;;10.65;64.93
40908;BME280;51055;59.436;24.778;2023-04-12T19:40:10;101386.63;;;10.62;64.21
40908;BME280;51055;59.436;24.778;2023-04-12T19:42:39;101389.28;;;10.62;64.77
40908;BME280;51055;59.436;24.778;2023-04-12T19:45:08;101388.84;;;10.56;64.45
40908;BME280;51055;59.436;24.778;2023-04-12T19:47:36;101393.38;;;10.54;64.39
40908;BME280;51055;59.436;24.778;2023-04-12T19:50:15;101390.84;;;10.52;64.44
40908;BME280;51055;59.436;24.778;2023-04-12T19:52:43;101395.59;;;10.47;64.39
40908;BME280;51055;59.436;24.778;2023-04-12T19:55:12;101380.34;;;10.51;63.79
40908;BME280;51055;59.436;24.778;2023-04-12T19:57:41;101392.53;;;10.40;64.56
40908;BME280;51055;59.436;24.778;2023-04-12T20:00:10;101382.34;;;10.34;64.39
40908;BME280;51055;59.436;24.778;2023-04-12T20:02:49;101385.00;;;10.34;63.99
40908;BME280;51055;59.436;24.778;2023-04-12T20:05:19;101393.28;;;10.30;64.55
40908;BME280;51055;59.436;24.778;2023-04-12T20:07:48;101390.63;;;10.30;64.05
40908;BME280;51055;59.436;24.778;2023-04-12T20:10:17;101392.13;;;10.34;63.62
40908;BME280;51055;59.436;24.778;2023-04-12T20:12:45;101392.28;;;10.31;63.18
40908;BME280;51055;59.436;24.778;2023-04-12T20:15:13;101398.88;;;10.25;63.05
40908;BME280;51055;59.436;24.778;2023-04-12T20:17:42;101400.59;;;10.26;63.03
40908;BME280;51055;59.436;24.778;2023-04-12T20:20:11;101402.47;;;10.24;63.13
40908;BME280;51055;59.436;24.778;2023-04-12T20:22:42;101401.72;;;10.22;63.26
40908;BME280;51055;59.436;24.778;2023-04-12T20:25:10;101399.81;;;10.24;62.41
40908;BME280;51055;59.436;24.778;2023-04-12T20:27:41;101407.03;;;10.22;62.23
40908;BME280;51055;59.436;24.778;2023-04-12T20:30:10;101402.22;;;10.15;62.81
40908;BME280;51055;59.436;24.778;2023-04-12T20:32:44;101400.16;;;10.20;62.42
40908;BME280;51055;59.436;24.778;2023-04-12T20:35:13;101401.72;;;10.22;62.15
40908;BME280;51055;59.436;24.778;2023-04-12T20:37:41;101407.16;;;10.21;62.11
40908;BME280;51055;59.436;24.778;2023-04-12T20:40:10;101400.22;;;10.18;61.67
40908;BME280;51055;59.436;24.778;2023-04-12T20:42:38;101408.19;;;10.18;61.48
40908;BME280;51055;59.436;24.778;2023-04-12T20:45:07;101409.03;;;10.19;61.68
40908;BME280;51055;59.436;24.778;2023-04-12T20:47:36;101408.31;;;10.17;61.76
40908;BME280;51055;59.436;24.778;2023-04-12T20:50:05;101413.69;;;10.15;61.62
40908;BME280;51055;59.436;24.778;2023-04-12T20:52:34;101405.25;;;10.23;61.58
40908;BME280;51055;59.436;24.778;2023-04-12T20:55:02;101411.69;;;10.19;61.41
40908;BME280;51055;59.436;24.778;2023-04-12T20:57:31;101410.84;;;10.18;61.41
40908;BME280;51055;59.436;24.778;2023-04-12T20:59:59;101404.31;;;10.10;61.92
40908;BME280;51055;59.436;24.778;2023-04-12T21:02:28;101414.56;;;10.16;61.50
40908;BME280;51055;59.436;24.778;2023-04-12T21:04:57;101415.28;;;10.18;61.88
40908;BME280;51055;59.436;24.778;2023-04-12T21:07:25;101417.00;;;10.19;61.61
40908;BME280;51055;59.436;24.778;2023-04-12T21:09:54;101417.19;;;10.16;61.55
40908;BME280;51055;59.436;24.778;2023-04-12T21:12:22;101418.06;;;10.16;62.02
40908;BME280;51055;59.436;24.778;2023-04-12T21:14:50;101418.78;;;10.18;62.03
40908;BME280;51055;59.436;24.778;2023-04-12T21:17:17;101417.94;;;10.18;61.91
40908;BME280;51055;59.436;24.778;2023-04-12T21:19:48;101423.25;;;10.18;61.55
40908;BME280;51055;59.436;24.778;2023-04-12T21:22:17;101422.69;;;10.13;62.34
40908;BME280;51055;59.436;24.778;2023-04-12T21:24:45;101424.59;;;10.11;62.02
40908;BME280;51055;59.436;24.778;2023-04-12T21:27:12;101420.09;;;10.11;62.48
40908;BME280;51055;59.436;24.778;2023-04-12T21:29:40;101426.47;;;10.09;62.59
40908;BME280;51055;59.436;24.778;2023-04-12T21:32:08;101422.69;;;10.13;62.38
40908;BME280;51055;59.436;24.778;2023-04-12T21:34:36;101425.28;;;10.14;62.23
40908;BME280;51055;59.436;24.778;2023-04-12T21:37:05;101426.00;;;10.16;62.33
40908;BME280;51055;59.436;24.778;2023-04-12T21:39:34;101426.88;;;10.17;62.80
40908;BME280;51055;59.436;24.778;2023-04-12T21:42:01;101420.50;;;10.19;62.50
40908;BME280;51055;59.436;24.778;2023-04-12T21:44:29;101432.91;;;10.19;62.61
40908;BME280;51055;59.436;24.778;2023-04-12T21:46:57;101429.19;;;10.21;62.78
40908;BME280;51055;59.436;24.778;2023-04-12T21:49:25;101424.00;;;10.20;62.62
40908;BME280;51055;59.436;24.778;2023-04-12T21:51:52;101428.44;;;10.19;62.62
40908;BME280;51055;59.436;24.778;2023-04-12T21:54:23;101424.84;;;10.20;62.97
40908;BME280;51055;59.436;24.778;2023-04-12T21:56:50;101429.19;;;10.21;62.95
40908;BME280;51055;59.436;24.778;2023-04-12T21:59:18;101424.75;;;10.22;63.29
40908;BME280;51055;59.436;24.778;2023-04-12T22:01:45;101424.66;;;10.23;62.96
40908;BME280;51055;59.436;24.778;2023-04-12T22:04:13;101419.78;;;10.30;62.90
40908;BME280;51055;59.436;24.778;2023-04-12T22:06:41;101419.44;;;10.22;63.19
40908;BME280;51055;59.436;24.778;2023-04-12T22:09:10;101423.06;;;10.21;63.34
40908;BME280;51055;59.436;24.778;2023-04-12T22:11:38;101415.09;;;10.21;63.05
40908;BME280;51055;59.436;24.778;2023-04-12T22:14:06;101417.75;;;10.21;63.39
40908;BME280;51055;59.436;24.778;2023-04-12T22:16:34;101413.19;;;10.23;63.03
40908;BME280;51055;59.436;24.778;2023-04-12T22:19:01;101409.03;;;10.19;63.48
40908;BME280;51055;59.436;24.778;2023-04-12T22:21:29;101410.84;;;10.18;63.57
40908;BME280;51055;59.436;24.778;2023-04-12T22:23:57;101409.38;;;10.14;63.72
40908;BME280;51055;59.436;24.778;2023-04-12T22:26:25;101406.03;;;10.11;63.96
40908;BME280;51055;59.436;24.778;2023-04-12T22:28:52;101410.47;;;10.10;64.09
40908;BME280;51055;59.436;24.778;2023-04-12T22:31:21;101409.50;;;10.11;63.89
40908;BME280;51055;59.436;24.778;2023-04-12T22:33:49;101416.47;;;10.14;63.68
40908;BME280;51055;59.436;24.778;2023-04-12T22:36:21;101406.59;;;10.16;63.51
40908;BME280;51055;59.436;24.778;2023-04-12T22:38:55;101397.72;;;10.03;63.94
40908;BME280;51055;59.436;24.778;2023-04-12T22:41:24;101407.47;;;10.02;64.24
40908;BME280;51055;59.436;24.778;2023-04-12T22:43:54;101403.31;;;9.98;64.43
40908;BME280;51055;59.436;24.778;2023-04-12T22:46:28;101406.09;;;9.97;64.66
40908;BME280;51055;59.436;24.778;2023-04-12T22:48:59;101409.78;;;9.94;65.09
40908;BME280;51055;59.436;24.778;2023-04-12T22:51:27;101409.47;;;9.99;64.59
40908;BME280;51055;59.436;24.778;2023-04-12T22:53:55;101411.38;;;9.97;64.84
40908;BME280;51055;59.436;24.778;2023-04-12T22:56:23;101402.13;;;9.89;65.18
40908;BME280;51055;59.436;24.778;2023-04-12T22:58:52;101409.88;;;9.92;65.40
40908;BME280;51055;59.436;24.778;2023-04-12T23:01:20;101406.81;;;9.99;65.07
40908;BME280;51055;59.436;24.778;2023-04-12T23:03:48;101398.78;;;10.00;64.69
40908;BME280;51055;59.436;24.778;2023-04-12T23:06:15;101394.44;;;9.99;65.06
40908;BME280;51055;59.436;24.778;2023-04-12T23:08:43;101394.53;;;9.98;64.69
40908;BME280;51055;59.436;24.778;2023-04-12T23:11:11;101385.84;;;9.95;64.91
40908;BME280;51055;59.436;24.778;2023-04-12T23:13:38;101385.28;;;9.90;65.17
40908;BME280;51055;59.436;24.778;2023-04-12T23:16:07;101380.66;;;9.94;65.02
40908;BME280;51055;59.436;24.778;2023-04-12T23:18:34;101387.53;;;9.97;65.00
40908;BME280;51055;59.436;24.778;2023-04-12T23:21:03;101384.28;;;10.06;64.52
40908;BME280;51055;59.436;24.778;2023-04-12T23:23:30;101378.53;;;9.99;64.47
40908;BME280;51055;59.436;24.778;2023-04-12T23:25:58;101380.22;;;10.00;64.82
40908;BME280;51055;59.436;24.778;2023-04-12T23:28:25;101376.81;;;9.98;64.58
40908;BME280;51055;59.436;24.778;2023-04-12T23:30:54;101382.31;;;9.95;64.96
40908;BME280;51055;59.436;24.778;2023-04-12T23:33:23;101378.72;;;9.96;64.68
40908;BME280;51055;59.436;24.778;2023-04-12T23:35:51;101373.19;;;9.86;65.10
40908;BME280;51055;59.436;24.778;2023-04-12T23:38:19;101381.06;;;9.88;65.24
40908;BME280;51055;59.436;24.778;2023-04-12T23:40:52;101373.41;;;9.83;64.92
40908;BME280;51055;59.436;24.778;2023-04-12T23:43:21;101377.19;;;9.79;65.22
40908;BME280;51055;59.436;24.778;2023-04-12T23:45:53;101384.19;;;9.80;65.18
40908;BME280;51055;59.436;24.778;2023-04-12T23:48:22;101379.00;;;9.79;65.63
40908;BME280;51055;59.436;24.778;2023-04-12T23:50:50;101384.50;;;9.76;65.87
40908;BME280;51055;59.436;24.778;2023-04-12T23:53:19;101375.31;;;9.81;65.30
40908;BME280;51055;59.436;24.778;2023-04-12T23:55:51;101375.81;;;9.74;65.61
40908;BME280;51055;59.436;24.778;2023-04-12T23:58:22;101369.75;;;9.72;66.18
